createdAt,value
2018-12-04T00:02:05.781Z,0.97
2018-12-04T00:04:35.983Z,0.70
2018-12-04T00:07:03.366Z,0.50
2018-12-04T00:09:30.746Z,0.60
2018-12-04T00:11:58.146Z,0.60
2018-12-04T00:14:25.523Z,0.60
2018-12-04T00:16:52.810Z,0.60
2018-12-04T00:19:20.132Z,0.80
2018-12-04T00:21:47.520Z,0.87
2018-12-04T00:24:15.031Z,0.80
2018-12-04T00:26:42.418Z,0.80
2018-12-04T00:29:09.793Z,0.70
2018-12-04T00:31:37.199Z,0.70
2018-12-04T00:34:04.609Z,0.90
2018-12-04T00:36:31.983Z,0.60
2018-12-04T00:38:59.381Z,0.50
2018-12-04T00:41:26.659Z,0.60
2018-12-04T00:43:53.948Z,0.60
2018-12-04T00:46:21.215Z,0.80
2018-12-04T00:48:48.535Z,0.70
2018-12-04T00:51:15.905Z,0.90
2018-12-04T00:53:44.084Z,0.60
2018-12-04T00:56:11.583Z,0.70
2018-12-04T00:58:38.972Z,0.70
2018-12-04T01:01:06.511Z,0.63
2018-12-04T01:03:33.883Z,0.70
2018-12-04T01:06:01.227Z,0.80
2018-12-04T01:08:28.598Z,1.00
2018-12-04T01:10:55.959Z,0.70
2018-12-04T01:13:23.309Z,0.70
2018-12-04T01:15:50.638Z,0.80
2018-12-04T01:18:17.993Z,0.60
2018-12-04T01:20:45.359Z,0.60
2018-12-04T01:23:12.897Z,1.13
2018-12-04T01:25:40.283Z,0.90
2018-12-04T01:28:07.650Z,1.00
2018-12-04T01:30:35.018Z,0.70
2018-12-04T01:33:02.459Z,0.70
2018-12-04T01:35:29.778Z,0.70
2018-12-04T01:37:57.153Z,0.90
2018-12-04T01:40:24.498Z,0.73
2018-12-04T01:42:51.755Z,0.70
2018-12-04T01:45:19.114Z,0.70
2018-12-04T01:47:46.426Z,0.80
2018-12-04T01:50:13.792Z,0.97
2018-12-04T01:52:42.216Z,0.80
2018-12-04T01:55:09.900Z,0.80
2018-12-04T01:57:37.234Z,0.60
2018-12-04T02:00:04.729Z,0.90
2018-12-04T02:02:32.086Z,0.80
2018-12-04T02:04:59.448Z,0.60
2018-12-04T02:07:27.300Z,0.80
2018-12-04T02:09:54.665Z,0.70
2018-12-04T02:12:22.040Z,0.73
2018-12-04T02:14:49.424Z,0.80
2018-12-04T02:17:16.767Z,1.63
2018-12-04T02:19:44.139Z,0.70
2018-12-04T02:22:11.488Z,0.70
2018-12-04T02:24:38.917Z,0.80
2018-12-04T02:27:06.174Z,0.70
2018-12-04T02:29:33.501Z,0.87
2018-12-04T02:32:00.752Z,0.70
2018-12-04T02:34:28.123Z,0.70
2018-12-04T02:36:55.444Z,0.73
2018-12-04T02:39:22.933Z,0.80
2018-12-04T02:41:50.486Z,0.80
2018-12-04T02:44:17.841Z,1.03
2018-12-04T02:46:45.215Z,0.70
2018-12-04T02:49:12.563Z,0.80
2018-12-04T02:51:39.929Z,0.60
2018-12-04T02:54:07.279Z,0.97
2018-12-04T02:56:34.625Z,0.60
2018-12-04T02:59:01.985Z,0.80
2018-12-04T03:01:29.361Z,0.77
2018-12-04T03:03:56.706Z,0.90
2018-12-04T03:06:24.174Z,0.87
2018-12-04T03:08:51.529Z,0.73
2018-12-04T03:11:18.875Z,1.00
2018-12-04T03:13:46.260Z,0.77
2018-12-04T03:16:13.530Z,1.10
2018-12-04T03:18:40.832Z,0.80
2018-12-04T03:21:08.262Z,0.80
2018-12-04T03:23:35.638Z,0.80
2018-12-04T03:26:03.036Z,1.00
2018-12-04T03:28:30.370Z,0.60
2018-12-04T03:30:57.737Z,0.83
2018-12-04T03:33:35.756Z,0.80
2018-12-04T03:36:03.278Z,0.70
2018-12-04T03:38:30.620Z,0.60
2018-12-04T03:40:57.986Z,0.80
2018-12-04T03:43:25.350Z,0.90
2018-12-04T03:45:52.608Z,0.77
2018-12-04T03:48:19.944Z,0.80
2018-12-04T03:50:47.289Z,1.37
2018-12-04T03:53:14.670Z,1.00
2018-12-04T03:55:42.024Z,0.93
2018-12-04T03:58:09.436Z,0.90
2018-12-04T04:00:36.935Z,1.10
2018-12-04T04:03:04.272Z,0.80
2018-12-04T04:05:31.629Z,0.77
2018-12-04T04:07:58.980Z,0.83
2018-12-04T04:10:26.336Z,0.87
2018-12-04T04:12:53.684Z,0.73
2018-12-04T04:15:21.060Z,0.73
2018-12-04T04:17:48.320Z,0.70
2018-12-04T04:20:15.572Z,0.80
2018-12-04T04:22:42.940Z,1.00
2018-12-04T04:25:10.316Z,1.03
2018-12-04T04:27:37.577Z,0.90
2018-12-04T04:30:04.965Z,0.80
2018-12-04T04:32:32.370Z,0.60
2018-12-04T04:34:59.628Z,1.10
2018-12-04T04:37:27.006Z,0.83
2018-12-04T04:39:54.374Z,1.00
2018-12-04T04:42:21.737Z,0.80
2018-12-04T04:44:49.106Z,1.00
2018-12-04T04:47:16.444Z,0.70
2018-12-04T04:49:43.832Z,0.80
2018-12-04T04:52:11.200Z,1.00
2018-12-04T04:54:38.448Z,0.70
2018-12-04T04:57:05.808Z,0.90
2018-12-04T04:59:33.177Z,0.80
2018-12-04T05:02:00.550Z,0.90
2018-12-04T05:04:28.005Z,1.20
2018-12-04T05:06:55.395Z,1.20
2018-12-04T05:09:22.748Z,1.40
2018-12-04T05:11:50.109Z,1.20
2018-12-04T05:14:17.377Z,1.03
2018-12-04T05:16:44.728Z,1.07
2018-12-04T05:19:12.068Z,1.10
2018-12-04T05:21:39.344Z,1.30
2018-12-04T05:24:06.844Z,1.43
2018-12-04T05:26:34.215Z,1.20
2018-12-04T05:29:01.572Z,0.87
2018-12-04T05:31:28.977Z,1.40
2018-12-04T05:33:56.390Z,1.10
2018-12-04T05:36:23.737Z,1.40
2018-12-04T05:38:51.143Z,1.10
2018-12-04T05:41:18.483Z,0.80
2018-12-04T05:43:45.842Z,1.20
2018-12-04T05:46:13.229Z,1.10
2018-12-04T05:48:40.603Z,0.80
2018-12-04T05:51:07.960Z,1.00
2018-12-04T05:53:35.979Z,1.30
2018-12-04T05:56:04.924Z,1.10
2018-12-04T05:58:32.281Z,1.00
2018-12-04T06:00:59.657Z,1.20
2018-12-04T06:03:27.038Z,1.70
2018-12-04T06:05:54.417Z,1.50
2018-12-04T06:08:21.762Z,1.47
2018-12-04T06:10:49.124Z,1.80
2018-12-04T06:13:16.398Z,1.70
2018-12-04T06:15:43.788Z,2.60
2018-12-04T06:18:11.720Z,1.80
2018-12-04T06:20:39.290Z,1.53
2018-12-04T06:23:06.676Z,1.37
2018-12-04T06:25:33.950Z,1.30
2018-12-04T06:28:01.347Z,1.30
2018-12-04T06:30:28.663Z,1.07
2018-12-04T06:32:56.031Z,1.20
2018-12-04T06:35:23.428Z,1.30
2018-12-04T06:37:50.818Z,0.90
2018-12-04T06:40:18.177Z,0.77
2018-12-04T06:42:45.532Z,0.90
2018-12-04T06:45:12.938Z,0.80
2018-12-04T06:47:40.296Z,1.10
2018-12-04T06:50:09.679Z,0.80
2018-12-04T06:52:36.926Z,0.87
2018-12-04T06:55:05.139Z,0.97
2018-12-04T06:57:32.435Z,0.70
2018-12-04T06:59:59.803Z,0.77
2018-12-04T07:02:27.219Z,0.90
2018-12-04T07:04:54.570Z,0.90
2018-12-04T07:07:21.851Z,0.80
2018-12-04T07:09:49.231Z,0.70
2018-12-04T07:12:16.620Z,0.70
2018-12-04T07:14:43.998Z,0.68
2018-12-04T07:17:11.317Z,0.70
2018-12-04T07:19:38.678Z,0.88
2018-12-04T07:22:06.077Z,0.80
2018-12-04T07:24:33.424Z,0.88
2018-12-04T07:27:00.823Z,0.70
2018-12-04T07:29:28.190Z,0.80
2018-12-04T07:31:55.539Z,0.90
2018-12-04T07:34:22.916Z,0.90
2018-12-04T07:36:50.299Z,1.00
2018-12-04T07:39:17.690Z,0.80
2018-12-04T07:41:45.041Z,1.12
2018-12-04T07:44:12.392Z,0.80
2018-12-04T07:46:39.791Z,0.80
2018-12-04T07:49:07.168Z,1.10
2018-12-04T07:51:34.523Z,0.80
2018-12-04T07:54:01.890Z,0.90
2018-12-04T07:56:29.257Z,1.27
2018-12-04T07:58:56.596Z,0.80
2018-12-04T08:01:23.954Z,0.90
2018-12-04T08:03:51.309Z,0.77
2018-12-04T08:06:18.720Z,0.80
2018-12-04T08:08:46.140Z,0.80
2018-12-04T08:11:13.507Z,0.80
2018-12-04T08:13:40.782Z,0.90
2018-12-04T08:16:08.063Z,0.70
2018-12-04T08:18:35.432Z,0.80
2018-12-04T08:21:02.792Z,1.17
2018-12-04T08:23:30.142Z,0.90
2018-12-04T08:25:57.492Z,0.90
2018-12-04T08:28:24.868Z,0.80
2018-12-04T08:30:52.246Z,0.70
2018-12-04T08:33:19.587Z,0.93
2018-12-04T08:35:46.943Z,1.13
2018-12-04T08:38:14.313Z,0.70
2018-12-04T08:40:41.695Z,1.07
2018-12-04T08:43:08.931Z,0.73
2018-12-04T08:45:37.109Z,1.13
2018-12-04T08:48:04.567Z,0.77
2018-12-04T08:50:31.993Z,0.80
2018-12-04T08:52:59.357Z,0.90
2018-12-04T08:55:26.848Z,0.70
2018-12-04T08:57:54.223Z,0.97
2018-12-04T09:00:21.621Z,0.70
2018-12-04T09:02:48.895Z,0.73
2018-12-04T09:05:16.299Z,1.00
2018-12-04T09:07:43.787Z,0.97
2018-12-04T09:10:11.157Z,0.90
2018-12-04T09:12:38.440Z,1.27
2018-12-04T09:15:06.135Z,0.90
2018-12-04T09:17:33.381Z,1.10
2018-12-04T09:20:00.708Z,0.97
2018-12-04T09:22:28.060Z,0.80
2018-12-04T09:24:55.571Z,0.80
2018-12-04T09:27:23.043Z,0.60
2018-12-04T09:29:50.503Z,0.93
2018-12-04T09:32:17.838Z,0.83
2018-12-04T09:34:45.177Z,1.30
2018-12-04T09:37:12.528Z,1.20
2018-12-04T09:39:39.807Z,1.27
2018-12-04T09:42:07.155Z,0.80
2018-12-04T09:44:34.434Z,0.97
2018-12-04T09:47:01.671Z,0.80
2018-12-04T09:49:29.054Z,0.80
2018-12-04T09:51:56.365Z,0.97
2018-12-04T09:54:23.759Z,1.02
2018-12-04T09:56:51.247Z,0.60
2018-12-04T09:59:18.630Z,0.88
2018-12-04T10:01:46.061Z,0.70
2018-12-04T10:04:13.438Z,1.00
2018-12-04T10:06:40.798Z,1.55
2018-12-04T10:09:09.034Z,1.10
2018-12-04T10:11:36.616Z,1.10
2018-12-04T10:14:04.243Z,0.87
2018-12-04T10:16:31.535Z,1.10
2018-12-04T10:18:59.188Z,1.30
2018-12-04T10:21:26.519Z,1.57
2018-12-04T10:23:53.890Z,1.00
2018-12-04T10:26:21.217Z,0.82
2018-12-04T10:28:48.601Z,0.90
2018-12-04T10:31:15.933Z,0.90
2018-12-04T10:33:43.246Z,0.97
2018-12-04T10:36:10.713Z,1.00
2018-12-04T10:38:44.813Z,1.00
2018-12-04T10:41:12.203Z,1.33
2018-12-04T10:43:39.548Z,1.10
2018-12-04T10:46:06.915Z,1.00
2018-12-04T10:48:34.485Z,0.90
2018-12-04T10:51:01.732Z,0.85
2018-12-04T10:53:29.114Z,1.10
2018-12-04T10:55:56.492Z,0.93
2018-12-04T10:58:23.868Z,1.22
2018-12-04T11:00:55.415Z,0.78
2018-12-04T11:03:28.468Z,0.60
2018-12-04T11:05:55.838Z,1.52
2018-12-04T11:08:23.232Z,0.70
2018-12-04T11:10:50.486Z,0.80
2018-12-04T11:13:17.857Z,0.75
2018-12-04T11:15:45.248Z,0.70
2018-12-04T11:18:12.495Z,0.70
2018-12-04T11:20:39.864Z,0.60
2018-12-04T11:23:07.132Z,0.62
2018-12-04T11:25:34.505Z,0.65
2018-12-04T11:28:01.838Z,0.70
2018-12-04T11:30:29.184Z,0.98
2018-12-04T11:32:56.544Z,0.80
2018-12-04T11:35:23.812Z,0.85
2018-12-04T11:37:51.168Z,0.95
2018-12-04T11:40:18.507Z,0.82
2018-12-04T11:42:45.878Z,0.70
2018-12-04T11:45:13.275Z,0.70
2018-12-04T11:47:40.662Z,0.90
2018-12-04T11:50:08.158Z,1.00
2018-12-04T11:52:35.434Z,0.90
2018-12-04T11:55:03.359Z,0.98
2018-12-04T11:57:30.890Z,1.05
2018-12-04T11:59:58.256Z,1.10
2018-12-04T12:02:25.548Z,1.20
2018-12-04T12:04:53.027Z,1.27
2018-12-04T12:07:20.724Z,1.10
2018-12-04T12:09:48.236Z,1.00
2018-12-04T12:12:15.525Z,0.93
2018-12-04T12:14:42.875Z,1.07
2018-12-04T12:17:10.250Z,1.33
2018-12-04T12:19:37.582Z,1.13
2018-12-04T12:22:04.932Z,1.10
2018-12-04T12:24:32.273Z,1.33
2018-12-04T12:26:59.734Z,0.90
2018-12-04T12:29:27.107Z,1.00
2018-12-04T12:31:54.440Z,1.20
2018-12-04T12:34:23.561Z,1.10
2018-12-04T12:36:51.140Z,1.50
2018-12-04T12:39:18.463Z,1.40
2018-12-04T12:41:45.788Z,1.37
2018-12-04T12:44:13.158Z,1.33
2018-12-04T12:46:40.535Z,1.27
2018-12-04T12:49:07.806Z,1.67
2018-12-04T12:51:35.186Z,1.50
2018-12-04T12:54:02.459Z,1.57
2018-12-04T12:56:29.809Z,1.60
2018-12-04T12:58:57.167Z,1.50
2018-12-04T13:01:24.537Z,1.30
2018-12-04T13:03:52.037Z,1.40
2018-12-04T13:06:19.384Z,1.50
2018-12-04T13:08:46.799Z,2.57
2018-12-04T13:11:14.203Z,1.53
2018-12-04T13:13:41.609Z,1.60
2018-12-04T13:16:08.993Z,2.50
2018-12-04T13:18:36.323Z,1.13
2018-12-04T13:21:03.649Z,1.47
2018-12-04T13:23:31.037Z,2.07
2018-12-04T13:25:58.475Z,1.50
2018-12-04T13:28:25.854Z,1.60
2018-12-04T13:30:53.207Z,1.40
2018-12-04T13:33:20.617Z,1.37
2018-12-04T13:35:47.963Z,1.57
2018-12-04T13:38:15.345Z,1.60
2018-12-04T13:40:42.745Z,1.52
2018-12-04T13:43:10.019Z,1.10
2018-12-04T13:45:37.389Z,1.37
2018-12-04T13:48:04.799Z,0.90
2018-12-04T13:50:32.209Z,1.60
2018-12-04T13:52:59.625Z,1.05
2018-12-04T13:55:27.138Z,1.75
2018-12-04T13:57:54.516Z,1.02
2018-12-04T14:00:21.872Z,1.50
2018-12-04T14:02:49.280Z,1.30
2018-12-04T14:05:16.732Z,1.60
2018-12-04T14:07:44.240Z,1.30
2018-12-04T14:10:11.707Z,1.22
2018-12-04T14:12:39.008Z,1.82
2018-12-04T14:15:06.644Z,1.52
2018-12-04T14:17:33.944Z,2.35
2018-12-04T14:20:01.462Z,3.92
2018-12-04T14:22:29.010Z,2.10
2018-12-04T14:24:56.610Z,1.67
2018-12-04T14:27:24.135Z,3.45
2018-12-04T14:29:51.595Z,9.43
2018-12-04T14:32:18.979Z,8.93
2018-12-04T14:34:46.365Z,5.97
2018-12-04T14:37:13.977Z,6.45
2018-12-04T14:39:42.038Z,3.85
2018-12-04T14:42:09.414Z,1.90
2018-12-04T14:44:36.988Z,8.73
2018-12-04T14:47:04.696Z,2.67
2018-12-04T14:49:32.256Z,2.40
2018-12-04T14:52:00.763Z,7.70
2018-12-04T14:54:28.192Z,2.20
2018-12-04T14:56:55.594Z,2.55
2018-12-04T14:59:22.974Z,1.65
2018-12-04T15:01:50.368Z,1.40
2018-12-04T15:04:17.632Z,1.55
2018-12-04T15:06:44.993Z,1.62
2018-12-04T15:09:12.843Z,1.50
2018-12-04T15:11:40.214Z,3.75
2018-12-04T15:14:07.648Z,1.50
2018-12-04T15:16:35.145Z,1.57
2018-12-04T15:19:02.657Z,1.85
2018-12-04T15:21:30.371Z,1.70
2018-12-04T15:23:57.811Z,2.08
2018-12-04T15:26:25.626Z,1.90
2018-12-04T15:28:53.190Z,2.52
2018-12-04T15:31:20.584Z,2.42
2018-12-04T15:33:48.590Z,1.82
2018-12-04T15:36:16.024Z,1.98
2018-12-04T15:38:43.841Z,2.22
2018-12-04T15:41:11.555Z,2.02
2018-12-04T15:43:39.287Z,2.22
2018-12-04T15:46:06.775Z,2.30
2018-12-04T15:48:34.184Z,1.98
2018-12-04T15:51:01.581Z,2.30
2018-12-04T15:53:28.924Z,2.22
2018-12-04T15:55:56.397Z,2.10
2018-12-04T15:58:24.025Z,2.45
2018-12-04T16:00:51.451Z,1.87
2018-12-04T16:03:19.074Z,1.77
2018-12-04T16:05:46.762Z,2.80
2018-12-04T16:08:14.346Z,3.47
2018-12-04T16:10:41.853Z,7.33
2018-12-04T16:13:09.182Z,8.35
2018-12-04T16:15:36.600Z,9.00
2018-12-04T16:18:04.127Z,5.37
2018-12-04T16:20:31.584Z,3.55
2018-12-04T16:22:58.926Z,2.17
2018-12-04T16:25:26.379Z,2.15
2018-12-04T16:27:53.824Z,2.15
2018-12-04T16:30:21.466Z,1.70
2018-12-04T16:32:48.789Z,2.62
2018-12-04T16:35:16.147Z,3.22
2018-12-04T16:37:43.569Z,3.50
2018-12-04T16:40:11.443Z,49.77
2018-12-04T16:42:38.915Z,18.80
2018-12-04T16:45:06.537Z,16.17
2018-12-04T16:47:33.960Z,62.93
2018-12-04T16:50:01.336Z,27.35
2018-12-04T16:52:28.791Z,25.95
2018-12-04T16:54:56.533Z,8.43
2018-12-04T16:57:24.039Z,16.23
2018-12-04T16:59:51.627Z,30.08
2018-12-04T17:02:19.139Z,14.93
2018-12-04T17:04:46.671Z,2.75
2018-12-04T17:07:14.246Z,2.40
2018-12-04T17:09:42.363Z,2.70
2018-12-04T17:12:10.497Z,2.50
2018-12-04T17:14:37.906Z,2.40
2018-12-04T17:17:05.484Z,2.87
2018-12-04T17:19:34.283Z,2.25
2018-12-04T17:22:01.840Z,2.20
2018-12-04T17:24:29.459Z,2.50
2018-12-04T17:26:56.954Z,4.70
2018-12-04T17:29:24.360Z,3.40
2018-12-04T17:31:51.843Z,3.10
2018-12-04T17:34:19.779Z,3.20
2018-12-04T17:36:47.226Z,5.70
2018-12-04T17:39:14.681Z,3.50
2018-12-04T17:41:42.665Z,4.58
2018-12-04T17:44:10.177Z,3.35
2018-12-04T17:46:37.714Z,3.00
2018-12-04T17:49:05.278Z,2.60
2018-12-04T17:51:32.689Z,2.92
2018-12-04T17:54:00.303Z,3.75
2018-12-04T17:56:27.883Z,3.92
2018-12-04T17:58:55.371Z,4.25
2018-12-04T18:01:22.865Z,3.47
2018-12-04T18:03:51.120Z,2.52
2018-12-04T18:06:18.843Z,1.92
2018-12-04T18:08:46.624Z,2.08
2018-12-04T18:11:14.114Z,2.10
2018-12-04T18:13:41.547Z,2.75
2018-12-04T18:16:09.074Z,3.83
2018-12-04T18:18:36.561Z,3.42
2018-12-04T18:21:04.313Z,3.02
2018-12-04T18:23:32.484Z,3.33
2018-12-04T18:26:00.232Z,2.70
2018-12-04T18:28:27.774Z,7.95
2018-12-04T18:30:55.253Z,6.05
2018-12-04T18:33:23.136Z,4.60
2018-12-04T18:35:50.652Z,2.75
2018-12-04T18:38:18.058Z,3.70
2018-12-04T18:40:45.730Z,3.35
2018-12-04T18:43:13.867Z,4.15
2018-12-04T18:45:41.386Z,2.87
2018-12-04T18:48:10.004Z,3.58
2018-12-04T18:50:37.834Z,3.55
2018-12-04T18:53:06.011Z,4.10
2018-12-04T18:55:33.539Z,16.60
2018-12-04T18:58:01.260Z,5.70
2018-12-04T19:00:29.454Z,4.35
2018-12-04T19:02:57.045Z,3.80
2018-12-04T19:05:26.021Z,4.50
2018-12-04T19:07:53.990Z,4.03
2018-12-04T19:10:21.818Z,4.85
2018-12-04T19:12:49.644Z,9.25
2018-12-04T19:15:17.162Z,5.05
2018-12-04T19:17:45.452Z,3.60
2018-12-04T19:20:13.543Z,4.10
2018-12-04T19:22:42.013Z,5.65
2018-12-04T19:25:10.540Z,4.83
2018-12-04T19:27:38.153Z,5.83
2018-12-04T19:30:10.151Z,7.22
2018-12-04T19:32:38.015Z,5.83
2018-12-04T19:35:06.812Z,4.75
2018-12-04T19:37:34.245Z,4.40
2018-12-04T19:40:02.062Z,3.85
2018-12-04T19:42:30.338Z,3.65
2018-12-04T19:44:58.166Z,4.70
2018-12-04T19:47:26.059Z,8.93
2018-12-04T19:49:53.902Z,9.15
2018-12-04T19:52:22.368Z,6.87
2018-12-04T19:54:50.282Z,5.45
2018-12-04T19:57:18.971Z,6.80
2018-12-04T19:59:47.536Z,17.05
2018-12-04T20:02:15.228Z,11.78
2018-12-04T20:04:43.439Z,7.90
2018-12-04T20:07:11.352Z,8.33
2018-12-04T20:09:39.201Z,9.80
2018-12-04T20:12:06.896Z,7.70
2018-12-04T20:14:34.931Z,10.35
2018-12-04T20:17:02.550Z,19.95
2018-12-04T20:19:30.840Z,17.35
2018-12-04T20:21:58.474Z,11.48
2018-12-04T20:24:26.119Z,10.55
2018-12-04T20:26:53.853Z,9.43
2018-12-04T20:29:21.361Z,6.67
2018-12-04T20:31:48.992Z,6.75
2018-12-04T20:34:16.977Z,5.97
2018-12-04T20:36:45.103Z,9.38
2018-12-04T20:39:13.580Z,5.35
2018-12-04T20:41:41.622Z,4.75
2018-12-04T20:44:09.364Z,5.30
2018-12-04T20:46:37.033Z,5.03
2018-12-04T20:49:04.707Z,6.00
2018-12-04T20:51:32.320Z,38.73
2018-12-04T20:53:59.864Z,21.48
2018-12-04T20:56:27.555Z,11.43
2018-12-04T20:58:55.485Z,6.45
2018-12-04T21:01:23.133Z,6.12
2018-12-04T21:03:51.168Z,6.47
2018-12-04T21:06:18.828Z,8.05
2018-12-04T21:08:46.554Z,8.50
2018-12-04T21:11:14.248Z,8.20
2018-12-04T21:13:41.860Z,8.63
2018-12-04T21:16:09.472Z,8.68
2018-12-04T21:18:37.116Z,8.00
2018-12-04T21:21:04.819Z,9.20
2018-12-04T21:23:32.403Z,9.33
2018-12-04T21:26:00.042Z,7.45
2018-12-04T21:28:27.477Z,7.97
2018-12-04T21:31:00.662Z,8.30
2018-12-04T21:33:33.656Z,8.13
2018-12-04T21:36:07.032Z,9.50
2018-12-04T21:38:40.288Z,8.98
2018-12-04T21:42:11.056Z,13.65
2018-12-04T21:44:44.424Z,10.20
2018-12-04T21:47:17.513Z,14.20
2018-12-04T21:49:45.016Z,10.80
2018-12-04T21:52:12.541Z,10.65
2018-12-04T21:54:40.135Z,6.80
2018-12-04T21:57:07.678Z,6.40
2018-12-04T21:59:35.383Z,5.97
2018-12-04T22:02:02.810Z,5.50
2018-12-04T22:04:30.387Z,6.45
2018-12-04T22:06:57.957Z,7.58
2018-12-04T22:09:25.590Z,6.67
2018-12-04T22:11:53.114Z,7.85
2018-12-04T22:14:20.496Z,8.60
2018-12-04T22:16:47.947Z,8.78
2018-12-04T22:19:15.339Z,9.05
2018-12-04T22:21:42.731Z,8.80
2018-12-04T22:24:10.082Z,7.80
2018-12-04T22:26:37.489Z,7.83
2018-12-04T22:29:04.852Z,6.97
2018-12-04T22:31:32.240Z,8.03
2018-12-04T22:33:59.625Z,7.62
2018-12-04T22:36:27.021Z,7.00
2018-12-04T22:38:54.410Z,8.08
2018-12-04T22:41:21.765Z,7.65
2018-12-04T22:43:49.158Z,13.83
2018-12-04T22:46:16.514Z,15.28
2018-12-04T22:48:43.916Z,13.38
2018-12-04T22:51:11.290Z,16.00
2018-12-04T22:53:38.658Z,10.63
2018-12-04T22:56:06.037Z,6.37
2018-12-04T22:58:33.385Z,5.00
2018-12-04T23:01:00.885Z,6.05
2018-12-04T23:03:28.225Z,5.58
2018-12-04T23:05:55.598Z,6.03
2018-12-04T23:08:22.971Z,6.28
2018-12-04T23:10:50.330Z,6.05
2018-12-04T23:13:17.702Z,6.20
2018-12-04T23:24:16.535Z,5.20
2018-12-04T23:26:43.892Z,5.05
2018-12-04T23:29:11.238Z,6.15
2018-12-04T23:31:38.634Z,5.75
2018-12-04T23:34:05.993Z,6.00
2018-12-04T23:36:33.325Z,6.08
2018-12-04T23:39:00.703Z,6.28
2018-12-04T23:41:28.058Z,6.12
2018-12-04T23:43:55.414Z,6.50
2018-12-04T23:46:22.770Z,5.58
2018-12-04T23:48:50.056Z,6.70
2018-12-04T23:51:17.419Z,6.25
2018-12-04T23:53:44.740Z,5.83
2018-12-04T23:56:12.098Z,5.53
2018-12-04T23:58:39.445Z,7.00
